sensor_id;sensor_type;location;lat;lon;timestamp;pressure;altitude;pressure_sealevel;temperature;humidity
28701;BME280;15877;52.344;16.790;2023-06-14T00:01:55;100816.28;;;19.14;60.90
28701;BME280;15877;52.344;16.790;2023-06-14T00:04:27;100811.51;;;19.18;61.13
28701;BME280;15877;52.344;16.790;2023-06-14T00:07:00;100807.08;;;19.19;61.30
28701;BME280;15877;52.344;16.790;2023-06-14T00:09:34;100807.79;;;19.20;61.63
28701;BME280;15877;52.344;16.790;2023-06-14T00:12:08;100808.02;;;19.23;61.92
28701;BME280;15877;52.344;16.790;2023-06-14T00:14:40;100810.27;;;19.23;61.89
28701;BME280;15877;52.344;16.790;2023-06-14T00:17:13;100802.86;;;19.22;62.01
28701;BME280;15877;52.344;16.790;2023-06-14T00:19:48;100803.04;;;19.22;62.10
28701;BME280;15877;52.344;16.790;2023-06-14T00:22:20;100802.45;;;19.23;62.15
28701;BME280;15877;52.344;16.790;2023-06-14T00:24:55;100793.98;;;19.16;62.21
28701;BME280;15877;52.344;16.790;2023-06-14T00:27:28;100807.45;;;19.22;62.31
28701;BME280;15877;52.344;16.790;2023-06-14T00:30:01;100807.52;;;19.23;62.32
28701;BME280;15877;52.344;16.790;2023-06-14T00:32:33;100810.65;;;19.24;62.03
28701;BME280;15877;52.344;16.790;2023-06-14T00:35:06;100809.40;;;19.20;62.55
28701;BME280;15877;52.344;16.790;2023-06-14T00:37:40;100808.91;;;19.22;62.19
28701;BME280;15877;52.344;16.790;2023-06-14T00:40:13;100813.34;;;19.22;62.46
28701;BME280;15877;52.344;16.790;2023-06-14T00:42:45;100816.59;;;19.17;62.76
28701;BME280;15877;52.344;16.790;2023-06-14T00:45:20;100814.41;;;19.19;62.82
28701;BME280;15877;52.344;16.790;2023-06-14T00:47:53;100812.78;;;19.20;63.11
28701;BME280;15877;52.344;16.790;2023-06-14T00:50:27;100814.38;;;19.21;63.33
28701;BME280;15877;52.344;16.790;2023-06-14T00:53:00;100813.16;;;19.22;63.18
28701;BME280;15877;52.344;16.790;2023-06-14T00:55:33;100802.16;;;19.20;63.23
28701;BME280;15877;52.344;16.790;2023-06-14T00:58:06;100806.20;;;19.19;63.30
28701;BME280;15877;52.344;16.790;2023-06-14T01:00:40;100809.52;;;19.15;63.44
28701;BME280;15877;52.344;16.790;2023-06-14T01:03:12;100800.90;;;19.18;63.40
28701;BME280;15877;52.344;16.790;2023-06-14T01:05:59;100803.47;;;19.17;64.18
28701;BME280;15877;52.344;16.790;2023-06-14T01:08:45;100805.40;;;19.17;64.05
28701;BME280;15877;52.344;16.790;2023-06-14T01:11:24;100803.86;;;19.18;64.26
28701;BME280;15877;52.344;16.790;2023-06-14T01:14:01;100802.99;;;19.16;64.35
28701;BME280;15877;52.344;16.790;2023-06-14T01:16:35;100803.51;;;19.12;64.68
28701;BME280;15877;52.344;16.790;2023-06-14T01:19:13;100805.48;;;19.15;64.39
28701;BME280;15877;52.344;16.790;2023-06-14T01:21:47;100803.67;;;19.13;64.59
28701;BME280;15877;52.344;16.790;2023-06-14T01:24:22;100798.77;;;19.10;65.10
28701;BME280;15877;52.344;16.790;2023-06-14T01:26:55;100802.47;;;19.10;65.01
28701;BME280;15877;52.344;16.790;2023-06-14T01:29:28;100800.63;;;19.09;65.25
28701;BME280;15877;52.344;16.790;2023-06-14T01:32:04;100797.24;;;19.10;65.38
28701;BME280;15877;52.344;16.790;2023-06-14T01:34:36;100791.41;;;19.05;65.33
28701;BME280;15877;52.344;16.790;2023-06-14T01:37:10;100794.23;;;19.04;65.20
28701;BME280;15877;52.344;16.790;2023-06-14T01:39:43;100794.61;;;19.06;65.23
28701;BME280;15877;52.344;16.790;2023-06-14T01:42:16;100781.99;;;19.04;65.58
28701;BME280;15877;52.344;16.790;2023-06-14T01:44:50;100783.13;;;19.04;65.75
28701;BME280;15877;52.344;16.790;2023-06-14T01:47:22;100781.92;;;19.03;65.42
28701;BME280;15877;52.344;16.790;2023-06-14T01:49:55;100781.27;;;19.04;65.63
28701;BME280;15877;52.344;16.790;2023-06-14T01:52:27;100778.95;;;19.01;65.52
28701;BME280;15877;52.344;16.790;2023-06-14T01:54:59;100779.04;;;19.00;65.78
28701;BME280;15877;52.344;16.790;2023-06-14T01:57:34;100780.08;;;19.01;65.63
28701;BME280;15877;52.344;16.790;2023-06-14T02:00:08;100779.04;;;19.01;65.78
28701;BME280;15877;52.344;16.790;2023-06-14T02:02:44;100771.01;;;19.01;65.80
28701;BME280;15877;52.344;16.790;2023-06-14T02:05:17;100761.64;;;18.93;66.18
28701;BME280;15877;52.344;16.790;2023-06-14T02:07:50;100771.48;;;18.99;65.81
28701;BME280;15877;52.344;16.790;2023-06-14T02:10:23;100765.23;;;18.99;65.39
28701;BME280;15877;52.344;16.790;2023-06-14T02:12:55;100770.84;;;19.00;65.21
28701;BME280;15877;52.344;16.790;2023-06-14T02:15:28;100772.79;;;18.99;65.86
28701;BME280;15877;52.344;16.790;2023-06-14T02:18:06;100777.44;;;18.99;65.97
28701;BME280;15877;52.344;16.790;2023-06-14T02:20:39;100771.92;;;18.95;65.95
28701;BME280;15877;52.344;16.790;2023-06-14T02:23:12;100775.21;;;18.94;65.51
28701;BME280;15877;52.344;16.790;2023-06-14T02:25:44;100766.58;;;18.88;65.39
28701;BME280;15877;52.344;16.790;2023-06-14T02:28:18;100776.27;;;18.93;65.79
28701;BME280;15877;52.344;16.790;2023-06-14T02:30:52;100781.66;;;18.94;66.24
28701;BME280;15877;52.344;16.790;2023-06-14T02:33:27;100783.27;;;18.95;66.25
28701;BME280;15877;52.344;16.790;2023-06-14T02:35:59;100783.19;;;18.94;66.37
28701;BME280;15877;52.344;16.790;2023-06-14T02:38:33;100781.17;;;18.94;66.17
28701;BME280;15877;52.344;16.790;2023-06-14T02:41:06;100785.63;;;18.91;66.19
28701;BME280;15877;52.344;16.790;2023-06-14T02:43:38;100784.81;;;18.92;66.15
28701;BME280;15877;52.344;16.790;2023-06-14T02:46:11;100787.78;;;18.93;66.35
28701;BME280;15877;52.344;16.790;2023-06-14T02:48:43;100786.91;;;18.90;66.39
28701;BME280;15877;52.344;16.790;2023-06-14T02:51:16;100785.15;;;18.89;66.10
28701;BME280;15877;52.344;16.790;2023-06-14T02:53:49;100789.59;;;18.89;66.06
28701;BME280;15877;52.344;16.790;2023-06-14T02:56:22;100788.43;;;18.91;66.13
28701;BME280;15877;52.344;16.790;2023-06-14T02:58:54;100786.66;;;18.92;66.47
28701;BME280;15877;52.344;16.790;2023-06-14T03:01:28;100791.90;;;18.91;66.36
28701;BME280;15877;52.344;16.790;2023-06-14T03:04:08;100788.77;;;18.89;66.36
28701;BME280;15877;52.344;16.790;2023-06-14T03:06:43;100790.21;;;18.90;66.04
28701;BME280;15877;52.344;16.790;2023-06-14T03:09:23;100792.89;;;18.86;65.81
28701;BME280;15877;52.344;16.790;2023-06-14T03:11:55;100795.08;;;18.83;65.05
28701;BME280;15877;52.344;16.790;2023-06-14T03:14:28;100795.98;;;18.78;65.24
28701;BME280;15877;52.344;16.790;2023-06-14T03:17:02;100794.07;;;18.80;65.79
28701;BME280;15877;52.344;16.790;2023-06-14T03:19:37;100796.86;;;18.79;65.67
28701;BME280;15877;52.344;16.790;2023-06-14T03:22:12;100795.48;;;18.82;65.44
28701;BME280;15877;52.344;16.790;2023-06-14T03:24:45;100784.59;;;18.75;65.77
28701;BME280;15877;52.344;16.790;2023-06-14T03:27:18;100790.20;;;18.79;65.33
28701;BME280;15877;52.344;16.790;2023-06-14T03:29:53;100793.27;;;18.78;65.28
28701;BME280;15877;52.344;16.790;2023-06-14T03:32:31;100797.95;;;18.74;65.47
28701;BME280;15877;52.344;16.790;2023-06-14T03:35:07;100796.33;;;18.75;65.81
28701;BME280;15877;52.344;16.790;2023-06-14T03:37:41;100794.80;;;18.77;65.55
28701;BME280;15877;52.344;16.790;2023-06-14T03:40:15;100781.41;;;18.70;65.98
28701;BME280;15877;52.344;16.790;2023-06-14T03:42:49;100798.96;;;18.78;66.04
28701;BME280;15877;52.344;16.790;2023-06-14T03:45:22;100797.13;;;18.76;65.78
28701;BME280;15877;52.344;16.790;2023-06-14T03:47:55;100796.15;;;18.78;65.68
28701;BME280;15877;52.344;16.790;2023-06-14T03:50:28;100794.55;;;18.77;66.43
28701;BME280;15877;52.344;16.790;2023-06-14T03:53:00;100800.58;;;18.79;66.25
28701;BME280;15877;52.344;16.790;2023-06-14T03:55:34;100805.88;;;18.80;66.13
28701;BME280;15877;52.344;16.790;2023-06-14T03:58:10;100814.41;;;18.78;65.93
28701;BME280;15877;52.344;16.790;2023-06-14T04:00:44;100814.16;;;18.80;66.22
28701;BME280;15877;52.344;16.790;2023-06-14T04:03:17;100812.23;;;18.78;66.38
28701;BME280;15877;52.344;16.790;2023-06-14T04:05:51;100814.10;;;18.78;66.65
28701;BME280;15877;52.344;16.790;2023-06-14T04:08:28;100818.90;;;18.81;66.46
28701;BME280;15877;52.344;16.790;2023-06-14T04:11:02;100818.58;;;18.83;66.44
28701;BME280;15877;52.344;16.790;2023-06-14T04:13:35;100821.08;;;18.80;67.03
28701;BME280;15877;52.344;16.790;2023-06-14T04:16:09;100818.11;;;18.79;67.10
28701;BME280;15877;52.344;16.790;2023-06-14T04:18:41;100817.77;;;18.80;66.12
28701;BME280;15877;52.344;16.790;2023-06-14T04:21:14;100817.73;;;18.76;65.96
28701;BME280;15877;52.344;16.790;2023-06-14T04:23:46;100822.63;;;18.76;66.13
28701;BME280;15877;52.344;16.790;2023-06-14T04:26:19;100819.09;;;18.76;66.02
28701;BME280;15877;52.344;16.790;2023-06-14T04:28:55;100817.30;;;18.79;65.80
28701;BME280;15877;52.344;16.790;2023-06-14T04:31:28;100817.14;;;18.78;66.12
28701;BME280;15877;52.344;16.790;2023-06-14T04:34:05;100818.17;;;18.80;65.82
28701;BME280;15877;52.344;16.790;2023-06-14T04:36:38;100828.82;;;18.76;65.88
28701;BME280;15877;52.344;16.790;2023-06-14T04:39:12;100807.07;;;18.67;66.28
28701;BME280;15877;52.344;16.790;2023-06-14T04:41:45;100822.73;;;18.83;65.61
28701;BME280;15877;52.344;16.790;2023-06-14T04:44:18;100822.75;;;18.83;65.50
28701;BME280;15877;52.344;16.790;2023-06-14T04:46:53;100826.20;;;18.86;65.49
28701;BME280;15877;52.344;16.790;2023-06-14T04:49:27;100822.02;;;18.85;65.38
28701;BME280;15877;52.344;16.790;2023-06-14T04:52:05;100818.64;;;18.85;65.39
28701;BME280;15877;52.344;16.790;2023-06-14T04:54:40;100820.02;;;18.82;65.34
28701;BME280;15877;52.344;16.790;2023-06-14T04:57:17;100824.11;;;18.84;65.51
28701;BME280;15877;52.344;16.790;2023-06-14T04:59:54;100826.30;;;18.81;65.52
28701;BME280;15877;52.344;16.790;2023-06-14T05:02:29;100826.21;;;18.83;65.58
28701;BME280;15877;52.344;16.790;2023-06-14T05:05:03;100823.66;;;18.79;65.35
28701;BME280;15877;52.344;16.790;2023-06-14T05:07:38;100827.67;;;18.82;64.85
28701;BME280;15877;52.344;16.790;2023-06-14T05:10:13;100842.12;;;18.85;65.66
28701;BME280;15877;52.344;16.790;2023-06-14T05:12:46;100829.13;;;18.78;65.59
28701;BME280;15877;52.344;16.790;2023-06-14T05:15:20;100837.95;;;18.85;65.56
28701;BME280;15877;52.344;16.790;2023-06-14T05:17:56;100836.08;;;18.87;65.32
28701;BME280;15877;52.344;16.790;2023-06-14T05:20:29;100837.06;;;18.84;65.91
28701;BME280;15877;52.344;16.790;2023-06-14T05:23:01;100832.65;;;18.82;66.28
28701;BME280;15877;52.344;16.790;2023-06-14T05:25:34;100830.16;;;18.80;66.67
28701;BME280;15877;52.344;16.790;2023-06-14T05:28:07;100830.92;;;18.90;66.06
28701;BME280;15877;52.344;16.790;2023-06-14T05:30:40;100835.09;;;18.92;66.57
28701;BME280;15877;52.344;16.790;2023-06-14T05:33:13;100840.15;;;18.95;66.80
28701;BME280;15877;52.344;16.790;2023-06-14T05:35:45;100841.98;;;18.97;66.35
28701;BME280;15877;52.344;16.790;2023-06-14T05:38:18;100845.91;;;18.99;66.07
28701;BME280;15877;52.344;16.790;2023-06-14T05:40:50;100841.55;;;19.01;66.51
28701;BME280;15877;52.344;16.790;2023-06-14T05:43:23;100838.65;;;19.01;66.73
28701;BME280;15877;52.344;16.790;2023-06-14T05:45:56;100846.55;;;19.13;66.64
28701;BME280;15877;52.344;16.790;2023-06-14T05:48:28;100842.81;;;19.18;66.55
28701;BME280;15877;52.344;16.790;2023-06-14T05:51:03;100841.66;;;19.22;66.11
28701;BME280;15877;52.344;16.790;2023-06-14T05:53:39;100840.67;;;19.29;65.28
28701;BME280;15877;52.344;16.790;2023-06-14T05:56:12;100834.19;;;19.23;65.50
28701;BME280;15877;52.344;16.790;2023-06-14T05:58:45;100847.81;;;19.32;65.34
28701;BME280;15877;52.344;16.790;2023-06-14T06:01:18;100835.61;;;19.27;65.54
28701;BME280;15877;52.344;16.790;2023-06-14T06:03:51;100859.94;;;19.49;65.53
28701;BME280;15877;52.344;16.790;2023-06-14T06:06:23;100856.92;;;19.54;65.39
28701;BME280;15877;52.344;16.790;2023-06-14T06:08:56;100860.25;;;19.60;65.07
28701;BME280;15877;52.344;16.790;2023-06-14T06:11:29;100860.96;;;19.62;64.76
28701;BME280;15877;52.344;16.790;2023-06-14T06:14:21;100868.05;;;19.63;64.11
28701;BME280;15877;52.344;16.790;2023-06-14T06:16:54;100869.12;;;19.68;64.21
28701;BME280;15877;52.344;16.790;2023-06-14T06:19:27;100872.48;;;19.72;64.29
28701;BME280;15877;52.344;16.790;2023-06-14T06:21:59;100871.54;;;19.69;64.26
28701;BME280;15877;52.344;16.790;2023-06-14T06:24:31;100874.19;;;19.71;64.12
28701;BME280;15877;52.344;16.790;2023-06-14T06:27:04;100875.77;;;19.71;64.10
28701;BME280;15877;52.344;16.790;2023-06-14T06:29:37;100864.85;;;19.69;65.00
28701;BME280;15877;52.344;16.790;2023-06-14T06:32:10;100874.23;;;19.75;64.20
28701;BME280;15877;52.344;16.790;2023-06-14T06:34:42;100875.25;;;19.78;64.61
28701;BME280;15877;52.344;16.790;2023-06-14T06:37:14;100877.11;;;19.77;65.85
28701;BME280;15877;52.344;16.790;2023-06-14T06:39:47;100883.16;;;19.75;65.79
28701;BME280;15877;52.344;16.790;2023-06-14T06:42:20;100884.62;;;19.74;66.48
28701;BME280;15877;52.344;16.790;2023-06-14T06:44:53;100893.66;;;19.72;65.80
28701;BME280;15877;52.344;16.790;2023-06-14T06:47:25;100895.19;;;19.73;65.85
28701;BME280;15877;52.344;16.790;2023-06-14T06:49:58;100893.42;;;19.71;66.23
28701;BME280;15877;52.344;16.790;2023-06-14T06:52:30;100894.38;;;19.73;66.71
28701;BME280;15877;52.344;16.790;2023-06-14T06:55:03;100893.73;;;19.74;66.32
28701;BME280;15877;52.344;16.790;2023-06-14T06:57:36;100896.20;;;19.77;66.56
28701;BME280;15877;52.344;16.790;2023-06-14T07:00:11;100896.83;;;19.79;67.21
28701;BME280;15877;52.344;16.790;2023-06-14T07:02:44;100894.40;;;19.80;67.01
28701;BME280;15877;52.344;16.790;2023-06-14T07:05:19;100900.82;;;19.83;66.84
28701;BME280;15877;52.344;16.790;2023-06-14T07:07:51;100910.62;;;19.87;67.21
28701;BME280;15877;52.344;16.790;2023-06-14T07:10:27;100914.46;;;19.90;66.69
28701;BME280;15877;52.344;16.790;2023-06-14T07:12:59;100911.39;;;19.91;66.47
28701;BME280;15877;52.344;16.790;2023-06-14T07:15:31;100910.34;;;19.92;66.40
28701;BME280;15877;52.344;16.790;2023-06-14T07:18:04;100916.30;;;19.91;66.53
28701;BME280;15877;52.344;16.790;2023-06-14T07:20:38;100920.81;;;19.93;66.59
28701;BME280;15877;52.344;16.790;2023-06-14T07:23:11;100911.58;;;19.89;66.47
28701;BME280;15877;52.344;16.790;2023-06-14T07:25:44;100925.27;;;19.98;65.80
28701;BME280;15877;52.344;16.790;2023-06-14T07:28:18;100924.95;;;19.98;65.64
28701;BME280;15877;52.344;16.790;2023-06-14T07:30:50;100923.10;;;19.97;65.45
28701;BME280;15877;52.344;16.790;2023-06-14T07:33:23;100911.20;;;19.95;65.44
28701;BME280;15877;52.344;16.790;2023-06-14T07:35:56;100913.69;;;19.96;65.17
28701;BME280;15877;52.344;16.790;2023-06-14T07:38:29;100917.23;;;19.97;65.29
28701;BME280;15877;52.344;16.790;2023-06-14T07:41:02;100921.16;;;19.98;65.58
28701;BME280;15877;52.344;16.790;2023-06-14T07:43:34;100925.02;;;19.99;64.96
28701;BME280;15877;52.344;16.790;2023-06-14T07:46:07;100918.09;;;20.00;65.03
28701;BME280;15877;52.344;16.790;2023-06-14T07:48:40;100911.22;;;20.02;64.78
28701;BME280;15877;52.344;16.790;2023-06-14T07:51:13;100912.34;;;20.02;64.18
28701;BME280;15877;52.344;16.790;2023-06-14T07:53:45;100910.45;;;20.05;64.38
28701;BME280;15877;52.344;16.790;2023-06-14T07:56:18;100910.45;;;20.05;64.58
28701;BME280;15877;52.344;16.790;2023-06-14T07:58:51;100911.27;;;20.05;64.83
28701;BME280;15877;52.344;16.790;2023-06-14T08:01:24;100912.63;;;20.06;65.57
28701;BME280;15877;52.344;16.790;2023-06-14T08:03:56;100912.38;;;20.07;65.00
28701;BME280;15877;52.344;16.790;2023-06-14T08:06:29;100916.33;;;20.07;63.85
28701;BME280;15877;52.344;16.790;2023-06-14T08:09:01;100907.28;;;20.00;63.40
28701;BME280;15877;52.344;16.790;2023-06-14T08:11:34;100913.89;;;20.00;63.64
28701;BME280;15877;52.344;16.790;2023-06-14T08:14:07;100913.66;;;19.98;64.06
28701;BME280;15877;52.344;16.790;2023-06-14T08:16:40;100906.98;;;19.96;64.54
28701;BME280;15877;52.344;16.790;2023-06-14T08:19:13;100892.63;;;19.91;65.32
28701;BME280;15877;52.344;16.790;2023-06-14T08:21:47;100905.64;;;19.94;66.83
28701;BME280;15877;52.344;16.790;2023-06-14T08:24:23;100916.75;;;19.96;67.15
28701;BME280;15877;52.344;16.790;2023-06-14T08:26:58;100918.02;;;19.97;65.99
28701;BME280;15877;52.344;16.790;2023-06-14T08:29:32;100893.94;;;19.96;65.98
28701;BME280;15877;52.344;16.790;2023-06-14T08:32:05;100896.08;;;20.01;65.67
28701;BME280;15877;52.344;16.790;2023-06-14T08:34:38;100914.27;;;20.12;65.56
28701;BME280;15877;52.344;16.790;2023-06-14T08:37:17;100917.72;;;20.15;65.50
28701;BME280;15877;52.344;16.790;2023-06-14T08:39:49;100916.89;;;20.18;64.76
28701;BME280;15877;52.344;16.790;2023-06-14T08:42:23;100922.84;;;20.21;65.52
28701;BME280;15877;52.344;16.790;2023-06-14T08:45:03;100923.55;;;20.22;64.50
28701;BME280;15877;52.344;16.790;2023-06-14T08:47:36;100922.30;;;20.27;63.26
28701;BME280;15877;52.344;16.790;2023-06-14T08:50:13;100927.33;;;20.31;64.16
28701;BME280;15877;52.344;16.790;2023-06-14T08:53:00;100930.46;;;20.39;64.09
28701;BME280;15877;52.344;16.790;2023-06-14T08:55:35;100927.09;;;20.47;63.76
28701;BME280;15877;52.344;16.790;2023-06-14T08:58:13;100918.73;;;20.51;64.23
28701;BME280;15877;52.344;16.790;2023-06-14T09:00:46;100923.71;;;20.61;63.36
28701;BME280;15877;52.344;16.790;2023-06-14T09:03:20;100920.70;;;20.69;62.96
28701;BME280;15877;52.344;16.790;2023-06-14T09:05:53;100916.17;;;20.85;62.68
28701;BME280;15877;52.344;16.790;2023-06-14T09:08:27;100923.59;;;21.00;62.12
28701;BME280;15877;52.344;16.790;2023-06-14T09:11:02;100925.70;;;21.12;61.34
28701;BME280;15877;52.344;16.790;2023-06-14T09:13:35;100929.73;;;21.25;60.99
28701;BME280;15877;52.344;16.790;2023-06-14T09:16:08;100934.92;;;21.28;60.02
28701;BME280;15877;52.344;16.790;2023-06-14T09:18:42;100938.95;;;21.35;59.98
28701;BME280;15877;52.344;16.790;2023-06-14T09:21:16;100937.95;;;21.54;60.04
28701;BME280;15877;52.344;16.790;2023-06-14T09:23:49;100935.68;;;21.64;59.55
28701;BME280;15877;52.344;16.790;2023-06-14T09:26:21;100939.27;;;21.67;60.14
28701;BME280;15877;52.344;16.790;2023-06-14T09:28:55;100941.95;;;21.66;59.38
28701;BME280;15877;52.344;16.790;2023-06-14T09:31:27;100935.39;;;21.62;59.43
28701;BME280;15877;52.344;16.790;2023-06-14T09:34:03;100932.55;;;21.68;59.67
28701;BME280;15877;52.344;16.790;2023-06-14T09:36:36;100928.91;;;21.87;58.23
28701;BME280;15877;52.344;16.790;2023-06-14T09:39:17;100929.11;;;21.94;57.46
28701;BME280;15877;52.344;16.790;2023-06-14T09:41:49;100925.73;;;21.93;57.55
28701;BME280;15877;52.344;16.790;2023-06-14T09:44:23;100924.67;;;22.07;58.00
28701;BME280;15877;52.344;16.790;2023-06-14T09:46:59;100925.34;;;22.16;56.26
28701;BME280;15877;52.344;16.790;2023-06-14T09:49:31;100918.62;;;22.16;55.89
28701;BME280;15877;52.344;16.790;2023-06-14T09:52:06;100917.86;;;22.13;55.11
28701;BME280;15877;52.344;16.790;2023-06-14T09:54:42;100916.04;;;22.16;55.51
28701;BME280;15877;52.344;16.790;2023-06-14T09:57:16;100915.86;;;22.21;54.49
28701;BME280;15877;52.344;16.790;2023-06-14T09:59:52;100912.00;;;22.29;54.77
28701;BME280;15877;52.344;16.790;2023-06-14T10:02:27;100908.41;;;22.35;54.78
28701;BME280;15877;52.344;16.790;2023-06-14T10:05:05;100906.41;;;22.56;53.96
28701;BME280;15877;52.344;16.790;2023-06-14T10:07:42;100897.77;;;22.75;53.48
28701;BME280;15877;52.344;16.790;2023-06-14T10:10:17;100891.62;;;22.87;53.01
28701;BME280;15877;52.344;16.790;2023-06-14T10:12:49;100887.73;;;23.06;53.51
28701;BME280;15877;52.344;16.790;2023-06-14T10:15:27;100888.45;;;23.21;53.14
28701;BME280;15877;52.344;16.790;2023-06-14T10:18:06;100884.00;;;23.36;51.37
28701;BME280;15877;52.344;16.790;2023-06-14T10:20:45;100884.32;;;23.50;51.66
28701;BME280;15877;52.344;16.790;2023-06-14T10:23:24;100860.23;;;23.44;50.94
28701;BME280;15877;52.344;16.790;2023-06-14T10:25:59;100891.30;;;23.63;50.91
28701;BME280;15877;52.344;16.790;2023-06-14T10:28:32;100884.88;;;23.41;49.89
28701;BME280;15877;52.344;16.790;2023-06-14T10:31:09;100878.52;;;23.49;50.66
28701;BME280;15877;52.344;16.790;2023-06-14T10:33:50;100879.27;;;23.41;51.03
28701;BME280;15877;52.344;16.790;2023-06-14T10:36:29;100876.56;;;23.52;50.12
28701;BME280;15877;52.344;16.790;2023-06-14T10:39:08;100874.70;;;23.49;51.50
28701;BME280;15877;52.344;16.790;2023-06-14T10:41:50;100868.20;;;23.40;50.94
28701;BME280;15877;52.344;16.790;2023-06-14T10:44:43;100871.77;;;23.39;50.56
28701;BME280;15877;52.344;16.790;2023-06-14T10:47:25;100872.46;;;23.38;49.90
28701;BME280;15877;52.344;16.790;2023-06-14T10:50:04;100872.09;;;23.36;50.15
28701;BME280;15877;52.344;16.790;2023-06-14T10:52:40;100865.81;;;23.38;50.18
28701;BME280;15877;52.344;16.790;2023-06-14T10:55:17;100865.48;;;23.38;50.07
28701;BME280;15877;52.344;16.790;2023-06-14T10:57:52;100861.79;;;23.37;50.45
28701;BME280;15877;52.344;16.790;2023-06-14T11:00:28;100863.02;;;23.40;50.84
28701;BME280;15877;52.344;16.790;2023-06-14T11:03:36;100859.58;;;23.41;51.41
28701;BME280;15877;52.344;16.790;2023-06-14T11:06:17;100857.45;;;23.39;49.88
28701;BME280;15877;52.344;16.790;2023-06-14T11:09:23;100859.13;;;23.40;49.23
28701;BME280;15877;52.344;16.790;2023-06-14T11:12:04;100853.23;;;23.42;49.12
28701;BME280;15877;52.344;16.790;2023-06-14T11:14:40;100847.66;;;23.35;48.79
28701;BME280;15877;52.344;16.790;2023-06-14T11:17:13;100844.73;;;23.35;49.37
28701;BME280;15877;52.344;16.790;2023-06-14T11:19:46;100844.00;;;23.32;50.71
28701;BME280;15877;52.344;16.790;2023-06-14T11:22:19;100840.98;;;23.33;50.82
28701;BME280;15877;52.344;16.790;2023-06-14T11:24:52;100840.95;;;23.30;49.68
28701;BME280;15877;52.344;16.790;2023-06-14T11:27:24;100840.88;;;23.30;49.61
28701;BME280;15877;52.344;16.790;2023-06-14T11:29:59;100842.55;;;23.28;50.44
28701;BME280;15877;52.344;16.790;2023-06-14T11:32:34;100840.91;;;23.25;50.22
28701;BME280;15877;52.344;16.790;2023-06-14T11:35:07;100836.40;;;23.23;50.97
28701;BME280;15877;52.344;16.790;2023-06-14T11:37:41;100834.25;;;23.18;50.06
28701;BME280;15877;52.344;16.790;2023-06-14T11:40:15;100836.35;;;23.18;50.22
28701;BME280;15877;52.344;16.790;2023-06-14T11:42:47;100837.14;;;23.15;50.23
28701;BME280;15877;52.344;16.790;2023-06-14T11:45:20;100835.60;;;23.12;50.04
28701;BME280;15877;52.344;16.790;2023-06-14T11:47:55;100838.85;;;23.08;49.73
28701;BME280;15877;52.344;16.790;2023-06-14T11:50:29;100841.17;;;23.06;50.00
28701;BME280;15877;52.344;16.790;2023-06-14T11:53:02;100839.78;;;23.06;50.58
28701;BME280;15877;52.344;16.790;2023-06-14T11:55:39;100829.52;;;23.16;49.48
28701;BME280;15877;52.344;16.790;2023-06-14T11:58:12;100828.33;;;23.56;49.38
28701;BME280;15877;52.344;16.790;2023-06-14T12:00:44;100777.92;;;23.34;50.10
28701;BME280;15877;52.344;16.790;2023-06-14T12:03:24;100820.10;;;23.61;49.23
28701;BME280;15877;52.344;16.790;2023-06-14T12:06:06;100810.80;;;23.73;49.17
28701;BME280;15877;52.344;16.790;2023-06-14T12:08:40;100810.20;;;23.86;47.91
28701;BME280;15877;52.344;16.790;2023-06-14T12:11:16;100812.14;;;23.89;48.58
28701;BME280;15877;52.344;16.790;2023-06-14T12:13:50;100808.74;;;23.89;48.52
28701;BME280;15877;52.344;16.790;2023-06-14T12:16:22;100806.55;;;23.86;48.73
28701;BME280;15877;52.344;16.790;2023-06-14T12:19:09;100807.50;;;23.78;48.07
28701;BME280;15877;52.344;16.790;2023-06-14T12:21:43;100809.21;;;23.74;48.98
28701;BME280;15877;52.344;16.790;2023-06-14T12:24:17;100802.59;;;23.62;49.32
28701;BME280;15877;52.344;16.790;2023-06-14T12:26:52;100808.23;;;23.56;48.33
28701;BME280;15877;52.344;16.790;2023-06-14T12:29:23;100810.71;;;23.35;47.33
28701;BME280;15877;52.344;16.790;2023-06-14T12:39:22;100798.62;;;23.08;48.36
28701;BME280;15877;52.344;16.790;2023-06-14T12:41:55;100801.09;;;22.95;48.78
28701;BME280;15877;52.344;16.790;2023-06-14T12:44:28;100800.48;;;22.94;50.86
28701;BME280;15877;52.344;16.790;2023-06-14T12:47:01;100803.33;;;22.93;49.63
28701;BME280;15877;52.344;16.790;2023-06-14T12:49:33;100798.02;;;22.92;49.30
28701;BME280;15877;52.344;16.790;2023-06-14T12:52:07;100795.51;;;22.88;49.64
28701;BME280;15877;52.344;16.790;2023-06-14T12:54:40;100797.84;;;22.85;49.87
28701;BME280;15877;52.344;16.790;2023-06-14T12:57:12;100797.78;;;22.84;50.67
28701;BME280;15877;52.344;16.790;2023-06-14T12:59:44;100798.23;;;22.82;49.69
28701;BME280;15877;52.344;16.790;2023-06-14T13:02:19;100794.05;;;22.81;50.03
28701;BME280;15877;52.344;16.790;2023-06-14T13:04:55;100797.38;;;22.78;49.93
28701;BME280;15877;52.344;16.790;2023-06-14T13:07:29;100799.54;;;22.75;50.38
28701;BME280;15877;52.344;16.790;2023-06-14T13:10:02;100795.08;;;22.71;50.70
28701;BME280;15877;52.344;16.790;2023-06-14T13:12:35;100796.25;;;22.70;50.13
28701;BME280;15877;52.344;16.790;2023-06-14T13:15:09;100781.52;;;22.58;50.04
28701;BME280;15877;52.344;16.790;2023-06-14T13:17:41;100791.08;;;22.69;51.18
28701;BME280;15877;52.344;16.790;2023-06-14T13:20:19;100789.00;;;22.75;50.70
28701;BME280;15877;52.344;16.790;2023-06-14T13:22:52;100781.43;;;22.84;49.04
28701;BME280;15877;52.344;16.790;2023-06-14T13:25:25;100785.56;;;22.95;49.03